sensor_id;sensor_type;location;lat;lon;timestamp;pressure;altitude;pressure_sealevel;temperature;humidity
77517;BME280;68414;53.946;27.634;2023-04-24T00:00:51;98644.570312;;;11.170000;51.015625
77517;BME280;68414;53.946;27.634;2023-04-24T00:01:51;98649.125000;;;11.100000;53.514648
77517;BME280;68414;53.946;27.634;2023-04-24T00:02:51;98640.796875;;;11.060000;53.259766
77517;BME280;68414;53.946;27.634;2023-04-24T00:03:51;98648.539062;;;11.010000;53.307617
77517;BME280;68414;53.946;27.634;2023-04-24T00:04:51;98649.343750;;;11.010000;53.318359
77517;BME280;68414;53.946;27.634;2023-04-24T00:05:51;98648.687500;;;11.080000;53.076172
77517;BME280;68414;53.946;27.634;2023-04-24T00:06:51;98644.757812;;;11.090000;53.425781
77517;BME280;68414;53.946;27.634;2023-04-24T00:07:51;98640.140625;;;11.130000;52.952148
77517;BME280;68414;53.946;27.634;2023-04-24T00:08:51;98642.898438;;;11.130000;53.159180
77517;BME280;68414;53.946;27.634;2023-04-24T00:09:51;98635.062500;;;11.150000;52.550781
77517;BME280;68414;53.946;27.634;2023-04-24T00:10:51;98633.828125;;;11.120000;53.245117
77517;BME280;68414;53.946;27.634;2023-04-24T00:11:51;98641.656250;;;11.100000;53.570312
77517;BME280;68414;53.946;27.634;2023-04-24T00:12:51;98640.359375;;;11.040000;53.747070
77517;BME280;68414;53.946;27.634;2023-04-24T00:13:51;98643.890625;;;11.050000;53.889648
77517;BME280;68414;53.946;27.634;2023-04-24T00:14:51;98637.296875;;;11.090000;53.992188
77517;BME280;68414;53.946;27.634;2023-04-24T00:15:51;98637.664062;;;11.080000;52.770508
77517;BME280;68414;53.946;27.634;2023-04-24T00:16:51;98629.765625;;;11.060000;52.115234
77517;BME280;68414;53.946;27.634;2023-04-24T00:17:51;98631.781250;;;11.090000;53.382812
77517;BME280;68414;53.946;27.634;2023-04-24T00:18:51;98633.390625;;;11.100000;53.297852
77517;BME280;68414;53.946;27.634;2023-04-24T00:19:51;98635.992188;;;11.030000;53.963867
77517;BME280;68414;53.946;27.634;2023-04-24T00:20:51;98627.718750;;;11.030000;53.288086
77517;BME280;68414;53.946;27.634;2023-04-24T00:21:51;98639.554688;;;11.040000;53.060547
77517;BME280;68414;53.946;27.634;2023-04-24T00:22:51;98634.382812;;;11.020000;53.189453
77517;BME280;68414;53.946;27.634;2023-04-24T00:23:51;98641.437500;;;11.000000;52.509766
77517;BME280;68414;53.946;27.634;2023-04-24T00:24:51;98633.609375;;;11.020000;52.970703
77517;BME280;68414;53.946;27.634;2023-04-24T00:25:51;98628.804688;;;10.990000;53.077148
77517;BME280;68414;53.946;27.634;2023-04-24T00:26:51;98638.593750;;;10.960000;52.975586
77517;BME280;68414;53.946;27.634;2023-04-24T00:27:51;98635.773438;;;10.930000;53.133789
77517;BME280;68414;53.946;27.634;2023-04-24T00:28:51;98635.343750;;;10.910000;53.348633
77517;BME280;68414;53.946;27.634;2023-04-24T00:29:51;98634.531250;;;10.900000;53.534180
77517;BME280;68414;53.946;27.634;2023-04-24T00:30:51;98634.531250;;;10.900000;53.577148
77517;BME280;68414;53.946;27.634;2023-04-24T00:31:51;98629.390625;;;10.890000;53.324219
77517;BME280;68414;53.946;27.634;2023-04-24T00:32:51;98634.156250;;;10.920000;53.656250
77517;BME280;68414;53.946;27.634;2023-04-24T00:33:51;98631.406250;;;10.920000;53.840820
77517;BME280;68414;53.946;27.634;2023-04-24T00:34:51;98629.453125;;;10.920000;54.223633
77517;BME280;68414;53.946;27.634;2023-04-24T00:35:51;98628.656250;;;10.920000;52.631836
77517;BME280;68414;53.946;27.634;2023-04-24T00:36:51;98634.906250;;;10.890000;53.499023
77517;BME280;68414;53.946;27.634;2023-04-24T00:37:51;98626.703125;;;10.920000;54.158203
77517;BME280;68414;53.946;27.634;2023-04-24T00:38:51;98631.843750;;;10.940000;54.562500
77517;BME280;68414;53.946;27.634;2023-04-24T00:39:51;98630.750000;;;10.790000;54.521484
77517;BME280;68414;53.946;27.634;2023-04-24T00:40:51;98622.781250;;;10.740000;54.145508
77517;BME280;68414;53.946;27.634;2023-04-24T00:41:51;98624.367188;;;10.750000;54.342773
77517;BME280;68414;53.946;27.634;2023-04-24T00:42:51;98632.703125;;;10.790000;54.085938
77517;BME280;68414;53.946;27.634;2023-04-24T00:43:51;98624.734375;;;10.740000;54.254883
77517;BME280;68414;53.946;27.634;2023-04-24T00:44:51;98629.078125;;;10.750000;54.081055
77517;BME280;68414;53.946;27.634;2023-04-24T00:45:51;98629.437500;;;10.730000;54.079102
77517;BME280;68414;53.946;27.634;2023-04-24T00:46:51;98621.609375;;;10.750000;54.125000
77517;BME280;68414;53.946;27.634;2023-04-24T00:47:52;98629.000000;;;10.710000;54.121094
77517;BME280;68414;53.946;27.634;2023-04-24T00:48:51;98623.703125;;;10.620000;54.391602
77517;BME280;68414;53.946;27.634;2023-04-24T00:49:51;98624.507812;;;10.630000;54.730469
77517;BME280;68414;53.946;27.634;2023-04-24T00:50:51;98618.898438;;;10.590000;54.606445
77517;BME280;68414;53.946;27.634;2023-04-24T00:51:51;98623.703125;;;10.620000;54.708008
77517;BME280;68414;53.946;27.634;2023-04-24T00:52:51;98621.750000;;;10.630000;54.687500
77517;BME280;68414;53.946;27.634;2023-04-24T00:53:51;98618.257812;;;10.660000;54.320312
77517;BME280;68414;53.946;27.634;2023-04-24T00:54:51;98622.828125;;;10.580000;54.572266
77517;BME280;68414;53.946;27.634;2023-04-24T00:55:51;98616.078125;;;10.560000;54.503906
77517;BME280;68414;53.946;27.634;2023-04-24T00:56:51;98622.054688;;;10.420000;55.020508
77517;BME280;68414;53.946;27.634;2023-04-24T00:57:51;98619.031250;;;10.470000;54.842773
77517;BME280;68414;53.946;27.634;2023-04-24T00:58:51;98624.984375;;;10.490000;54.812500
77517;BME280;68414;53.946;27.634;2023-04-24T00:59:51;98620.984375;;;10.470000;55.167969
77517;BME280;68414;53.946;27.634;2023-04-24T01:00:51;98626.929688;;;10.490000;54.941406
77517;BME280;68414;53.946;27.634;2023-04-24T01:01:51;98618.765625;;;10.520000;54.804688
77517;BME280;68414;53.946;27.634;2023-04-24T01:02:51;98627.468750;;;10.540000;54.992188
77517;BME280;68414;53.946;27.634;2023-04-24T01:03:51;98618.390625;;;10.540000;54.741211
77517;BME280;68414;53.946;27.634;2023-04-24T01:04:51;98618.468750;;;10.570000;54.973633
77517;BME280;68414;53.946;27.634;2023-04-24T01:05:52;98623.968750;;;10.570000;54.310547
77517;BME280;68414;53.946;27.634;2023-04-24T01:06:51;98626.726562;;;10.570000;54.179688
77517;BME280;68414;53.946;27.634;2023-04-24T01:07:51;98620.078125;;;10.580000;54.398438
77517;BME280;68414;53.946;27.634;2023-04-24T01:08:51;98616.882812;;;10.560000;54.384766
77517;BME280;68414;53.946;27.634;2023-04-24T01:09:51;98620.343750;;;10.530000;54.642578
77517;BME280;68414;53.946;27.634;2023-04-24T01:10:52;98613.593750;;;10.510000;54.693359
77517;BME280;68414;53.946;27.634;2023-04-24T01:11:51;98622.156250;;;10.460000;54.773438
77517;BME280;68414;53.946;27.634;2023-04-24T01:12:51;98619.031250;;;10.470000;55.071289
77517;BME280;68414;53.946;27.634;2023-04-24T01:13:51;98622.593750;;;10.480000;55.071289
77517;BME280;68414;53.946;27.634;2023-04-24T01:14:51;98620.984375;;;10.470000;55.331055
77517;BME280;68414;53.946;27.634;2023-04-24T01:15:51;98622.500000;;;10.440000;55.272461
77517;BME280;68414;53.946;27.634;2023-04-24T01:16:51;98612.718750;;;10.470000;55.308594
77517;BME280;68414;53.946;27.634;2023-04-24T01:17:51;98617.523438;;;10.500000;55.062500
77517;BME280;68414;53.946;27.634;2023-04-24T01:18:51;98625.421875;;;10.510000;55.140625
77517;BME280;68414;53.946;27.634;2023-04-24T01:19:51;98618.765625;;;10.520000;55.164062
77517;BME280;68414;53.946;27.634;2023-04-24T01:20:52;98620.343750;;;10.530000;55.328125
77517;BME280;68414;53.946;27.634;2023-04-24T01:21:52;98622.296875;;;10.530000;55.403320
77517;BME280;68414;53.946;27.634;2023-04-24T01:22:51;98623.375000;;;10.480000;55.418945
77517;BME280;68414;53.946;27.634;2023-04-24T01:23:51;98619.843750;;;10.480000;55.201172
77517;BME280;68414;53.946;27.634;2023-04-24T01:24:51;98608.015625;;;10.470000;55.201172
77517;BME280;68414;53.946;27.634;2023-04-24T01:25:51;98624.609375;;;10.510000;55.455078
77517;BME280;68414;53.946;27.634;2023-04-24T01:26:51;98614.328125;;;10.480000;55.418945
77517;BME280;68414;53.946;27.634;2023-04-24T01:27:51;98616.343750;;;10.510000;55.237305
77517;BME280;68414;53.946;27.634;2023-04-24T01:28:51;98614.601562;;;10.430000;54.902344
77517;BME280;68414;53.946;27.634;2023-04-24T01:29:51;98619.296875;;;10.420000;54.758789
77517;BME280;68414;53.946;27.634;2023-04-24T01:30:51;98619.937500;;;10.360000;55.077148
77517;BME280;68414;53.946;27.634;2023-04-24T01:31:51;98619.937500;;;10.360000;54.924805
77517;BME280;68414;53.946;27.634;2023-04-24T01:32:52;98619.765625;;;10.290000;55.406250
77517;BME280;68414;53.946;27.634;2023-04-24T01:33:51;98619.765625;;;10.290000;55.199219
77517;BME280;68414;53.946;27.634;2023-04-24T01:34:51;98617.375000;;;10.270000;55.413086
77517;BME280;68414;53.946;27.634;2023-04-24T01:35:51;98625.203125;;;10.250000;55.530273
77517;BME280;68414;53.946;27.634;2023-04-24T01:36:51;98618.992188;;;10.280000;55.666016
77517;BME280;68414;53.946;27.634;2023-04-24T01:37:51;98616.234375;;;10.280000;55.719727
77517;BME280;68414;53.946;27.634;2023-04-24T01:38:51;98618.359375;;;10.350000;55.696289
77517;BME280;68414;53.946;27.634;2023-04-24T01:39:51;98612.484375;;;10.360000;55.599609
77517;BME280;68414;53.946;27.634;2023-04-24T01:40:51;98616.039062;;;10.370000;55.556641
77517;BME280;68414;53.946;27.634;2023-04-24T01:41:51;98616.812500;;;10.370000;55.350586
77517;BME280;68414;53.946;27.634;2023-04-24T01:42:51;98615.671875;;;10.380000;55.711914
77517;BME280;68414;53.946;27.634;2023-04-24T01:43:51;98615.304688;;;10.400000;55.495117
77517;BME280;68414;53.946;27.634;2023-04-24T01:44:51;98614.531250;;;10.390000;55.538086
77517;BME280;68414;53.946;27.634;2023-04-24T01:45:51;98624.375000;;;10.400000;55.387695
77517;BME280;68414;53.946;27.634;2023-04-24T01:46:51;98618.796875;;;10.370000;55.513672
77517;BME280;68414;53.946;27.634;2023-04-24T01:47:51;98615.671875;;;10.380000;55.689453
77517;BME280;68414;53.946;27.634;2023-04-24T01:48:51;98614.531250;;;10.390000;55.461914
77517;BME280;68414;53.946;27.634;2023-04-24T01:49:51;98612.851562;;;10.350000;55.293945
77517;BME280;68414;53.946;27.634;2023-04-24T01:50:51;98612.046875;;;10.340000;55.292969
77517;BME280;68414;53.946;27.634;2023-04-24T01:51:51;98610.437500;;;10.330000;55.334961
77517;BME280;68414;53.946;27.634;2023-04-24T01:52:51;98612.851562;;;10.350000;55.065430
77517;BME280;68414;53.946;27.634;2023-04-24T01:53:51;98613.750000;;;10.230000;54.843750
77517;BME280;68414;53.946;27.634;2023-04-24T01:54:51;98612.609375;;;10.240000;54.998047
77517;BME280;68414;53.946;27.634;2023-04-24T01:55:51;98605.921875;;;10.250000;55.139648
77517;BME280;68414;53.946;27.634;2023-04-24T01:56:51;98612.437500;;;10.170000;55.085938
77517;BME280;68414;53.946;27.634;2023-04-24T01:57:52;98608.171875;;;10.200000;55.285156
77517;BME280;68414;53.946;27.634;2023-04-24T01:58:51;98609.234375;;;10.150000;54.703125
77517;BME280;68414;53.946;27.634;2023-04-24T01:59:51;98610.375000;;;10.140000;54.615234
77517;BME280;68414;53.946;27.634;2023-04-24T02:00:51;98603.531250;;;10.080000;55.357422
77517;BME280;68414;53.946;27.634;2023-04-24T02:01:51;98612.593750;;;10.090000;55.291992
77517;BME280;68414;53.946;27.634;2023-04-24T02:02:51;98602.046875;;;10.110000;55.262695
77517;BME280;68414;53.946;27.634;2023-04-24T02:03:51;98602.859375;;;10.110000;55.328125
77517;BME280;68414;53.946;27.634;2023-04-24T02:04:51;98600.101562;;;10.110000;55.219727
77517;BME280;68414;53.946;27.634;2023-04-24T02:05:51;98604.515625;;;10.000000;55.434570
77517;BME280;68414;53.946;27.634;2023-04-24T02:06:51;98609.218750;;;10.000000;56.008789
77517;BME280;68414;53.946;27.634;2023-04-24T02:07:51;98608.046875;;;10.010000;56.325195
77517;BME280;68414;53.946;27.634;2023-04-24T02:08:51;98609.296875;;;10.030000;56.198242
77517;BME280;68414;53.946;27.634;2023-04-24T02:09:51;98603.343750;;;10.010000;55.729492
77517;BME280;68414;53.946;27.634;2023-04-24T02:10:51;98593.140625;;;10.020000;55.935547
77517;BME280;68414;53.946;27.634;2023-04-24T02:11:51;98599.203125;;;9.910000;57.411133
77517;BME280;68414;53.946;27.634;2023-04-24T02:12:51;98608.234375;;;9.920000;56.803711
77517;BME280;68414;53.946;27.634;2023-04-24T02:13:51;98597.070312;;;9.850000;56.891602
77517;BME280;68414;53.946;27.634;2023-04-24T02:14:51;98600.078125;;;9.800000;56.841797
77517;BME280;68414;53.946;27.634;2023-04-24T02:15:51;98601.843750;;;9.720000;57.906250
77517;BME280;68414;53.946;27.634;2023-04-24T02:16:51;98594.390625;;;9.730000;57.516602
77517;BME280;68414;53.946;27.634;2023-04-24T02:17:51;98600.000000;;;9.760000;57.575195
77517;BME280;68414;53.946;27.634;2023-04-24T02:18:51;98591.015625;;;9.790000;57.069336
77517;BME280;68414;53.946;27.634;2023-04-24T02:19:51;98600.523438;;;9.820000;57.972656
77517;BME280;68414;53.946;27.634;2023-04-24T02:20:51;98586.843750;;;9.850000;56.784180
77517;BME280;68414;53.946;27.634;2023-04-24T02:21:51;98594.390625;;;9.880000;56.625000
77517;BME280;68414;53.946;27.634;2023-04-24T02:22:51;98602.281250;;;9.900000;56.658203
77517;BME280;68414;53.946;27.634;2023-04-24T02:23:51;98594.390625;;;9.880000;56.515625
77517;BME280;68414;53.946;27.634;2023-04-24T02:24:51;98596.445312;;;9.910000;56.238281
77517;BME280;68414;53.946;27.634;2023-04-24T02:25:51;98594.140625;;;9.930000;56.219727
77517;BME280;68414;53.946;27.634;2023-04-24T02:26:51;98592.265625;;;9.820000;56.746094
77517;BME280;68414;53.946;27.634;2023-04-24T02:27:51;98596.632812;;;9.830000;56.551758
77517;BME280;68414;53.946;27.634;2023-04-24T02:28:51;98595.906250;;;9.860000;56.251953
77517;BME280;68414;53.946;27.634;2023-04-24T02:29:51;98597.148438;;;9.880000;56.602539
77517;BME280;68414;53.946;27.634;2023-04-24T02:30:51;98591.281250;;;9.900000;56.310547
77517;BME280;68414;53.946;27.634;2023-04-24T02:31:51;98593.250000;;;9.890000;56.430664
77517;BME280;68414;53.946;27.634;2023-04-24T02:32:51;98595.640625;;;9.750000;57.280273
77517;BME280;68414;53.946;27.634;2023-04-24T02:33:51;98597.765625;;;9.820000;56.974609
77517;BME280;68414;53.946;27.634;2023-04-24T02:34:51;98598.578125;;;9.820000;56.888672
77517;BME280;68414;53.946;27.634;2023-04-24T02:35:51;98601.328125;;;9.820000;56.671875
77517;BME280;68414;53.946;27.634;2023-04-24T02:36:51;98595.093750;;;9.850000;56.642578
77517;BME280;68414;53.946;27.634;2023-04-24T02:37:51;98593.515625;;;9.840000;56.826172
77517;BME280;68414;53.946;27.634;2023-04-24T02:38:51;98596.890625;;;9.780000;56.936523
77517;BME280;68414;53.946;27.634;2023-04-24T02:39:51;98598.390625;;;9.750000;58.040039
77517;BME280;68414;53.946;27.634;2023-04-24T02:40:51;98596.000000;;;9.740000;57.733398
77517;BME280;68414;53.946;27.634;2023-04-24T02:41:51;98596.875000;;;9.620000;58.565430
77517;BME280;68414;53.946;27.634;2023-04-24T02:42:51;98590.312500;;;9.670000;57.790039
77517;BME280;68414;53.946;27.634;2023-04-24T02:43:51;98596.257812;;;9.690000;58.139648
77517;BME280;68414;53.946;27.634;2023-04-24T02:44:51;98592.265625;;;9.660000;56.877930
77517;BME280;68414;53.946;27.634;2023-04-24T02:45:51;98591.203125;;;9.710000;56.699219
77517;BME280;68414;53.946;27.634;2023-04-24T02:46:51;98595.273438;;;9.770000;57.077148
77517;BME280;68414;53.946;27.634;2023-04-24T02:47:51;98591.640625;;;9.730000;57.083008
77517;BME280;68414;53.946;27.634;2023-04-24T02:48:51;98592.078125;;;9.750000;56.184570
77517;BME280;68414;53.946;27.634;2023-04-24T02:49:51;98601.687500;;;9.810000;57.298828
77517;BME280;68414;53.946;27.634;2023-04-24T02:50:51;98593.437500;;;9.810000;56.995117
77517;BME280;68414;53.946;27.634;2023-04-24T02:51:51;98600.156250;;;9.830000;57.084961
77517;BME280;68414;53.946;27.634;2023-04-24T02:52:51;98588.375000;;;9.830000;57.083984
77517;BME280;68414;53.946;27.634;2023-04-24T02:53:51;98590.328125;;;9.820000;57.073242
77517;BME280;68414;53.946;27.634;2023-04-24T02:54:51;98586.398438;;;9.830000;56.802734
77517;BME280;68414;53.946;27.634;2023-04-24T02:55:51;98591.125000;;;9.830000;56.650391
77517;BME280;68414;53.946;27.634;2023-04-24T02:56:51;98593.437500;;;9.810000;57.005859
77517;BME280;68414;53.946;27.634;2023-04-24T02:57:51;98590.687500;;;9.810000;56.484375
77517;BME280;68414;53.946;27.634;2023-04-24T02:58:51;98593.765625;;;9.790000;56.797852
77517;BME280;68414;53.946;27.634;2023-04-24T02:59:51;98587.015625;;;9.770000;57.077148
77517;BME280;68414;53.946;27.634;2023-04-24T03:01:51;98588.375000;;;9.830000;56.736328
77517;BME280;68414;53.946;27.634;2023-04-24T03:02:51;98593.875000;;;9.830000;57.073242
77517;BME280;68414;53.946;27.634;2023-04-24T03:03:51;98588.375000;;;9.830000;57.247070
77517;BME280;68414;53.946;27.634;2023-04-24T03:04:51;98590.687500;;;9.810000;57.483398
77517;BME280;68414;53.946;27.634;2023-04-24T03:05:51;98587.015625;;;9.770000;57.533203
77517;BME280;68414;53.946;27.634;2023-04-24T03:06:51;98587.937500;;;9.810000;57.364258
77517;BME280;68414;53.946;27.634;2023-04-24T03:07:51;98592.968750;;;9.790000;57.329102
77517;BME280;68414;53.946;27.634;2023-04-24T03:08:51;98586.250000;;;9.760000;57.552734
77517;BME280;68414;53.946;27.634;2023-04-24T03:09:51;98589.875000;;;9.800000;57.297852
77517;BME280;68414;53.946;27.634;2023-04-24T03:10:51;98590.843750;;;9.880000;57.492188
77517;BME280;68414;53.946;27.634;2023-04-24T03:11:51;98597.250000;;;9.760000;57.314453
77517;BME280;68414;53.946;27.634;2023-04-24T03:12:51;98595.273438;;;9.770000;57.348633
77517;BME280;68414;53.946;27.634;2023-04-24T03:13:51;98595.453125;;;9.680000;57.542969
77517;BME280;68414;53.946;27.634;2023-04-24T03:14:51;98597.242188;;;9.610000;58.357422
77517;BME280;68414;53.946;27.634;2023-04-24T03:15:51;98590.679688;;;9.650000;58.102539
77517;BME280;68414;53.946;27.634;2023-04-24T03:16:51;98597.062500;;;9.690000;57.577148
77517;BME280;68414;53.946;27.634;2023-04-24T03:17:51;98594.492188;;;9.610000;58.683594
77517;BME280;68414;53.946;27.634;2023-04-24T03:18:51;98591.812500;;;9.640000;58.751953
77517;BME280;68414;53.946;27.634;2023-04-24T03:19:51;98589.250000;;;9.710000;57.818359
77517;BME280;68414;53.946;27.634;2023-04-24T03:20:51;98591.382812;;;9.780000;58.228516
77517;BME280;68414;53.946;27.634;2023-04-24T03:21:51;98594.656250;;;9.830000;58.333984
77517;BME280;68414;53.946;27.634;2023-04-24T03:22:51;98592.453125;;;9.890000;58.047852
77517;BME280;68414;53.946;27.634;2023-04-24T03:23:51;98595.203125;;;9.890000;57.559570
77517;BME280;68414;53.946;27.634;2023-04-24T03:24:51;98590.578125;;;9.930000;57.510742
77517;BME280;68414;53.946;27.634;2023-04-24T03:25:51;98597.148438;;;9.880000;57.732422
77517;BME280;68414;53.946;27.634;2023-04-24T03:26:51;98591.460938;;;9.810000;57.918945
77517;BME280;68414;53.946;27.634;2023-04-24T03:27:51;98594.578125;;;9.800000;57.807617
77517;BME280;68414;53.946;27.634;2023-04-24T03:28:51;98603.718750;;;9.840000;57.400391
77517;BME280;68414;53.946;27.634;2023-04-24T03:29:51;98593.953125;;;9.860000;56.611328
77517;BME280;68414;53.946;27.634;2023-04-24T03:30:51;98596.343750;;;9.880000;57.535156
77517;BME280;68414;53.946;27.634;2023-04-24T03:31:51;98598.828125;;;9.930000;56.500000
77517;BME280;68414;53.946;27.634;2023-04-24T03:32:51;98590.656250;;;9.970000;56.417969
77517;BME280;68414;53.946;27.634;2023-04-24T03:33:51;98594.906250;;;9.940000;57.011719
77517;BME280;68414;53.946;27.634;2023-04-24T03:34:51;98602.828125;;;9.960000;57.112305
77517;BME280;68414;53.946;27.634;2023-04-24T03:35:51;98596.960938;;;9.970000;56.591797
77517;BME280;68414;53.946;27.634;2023-04-24T03:36:51;98598.203125;;;10.000000;55.900391
77517;BME280;68414;53.946;27.634;2023-04-24T03:37:51;98597.578125;;;10.060000;55.648438
77517;BME280;68414;53.946;27.634;2023-04-24T03:38:51;98598.125000;;;10.120000;55.362305
77517;BME280;68414;53.946;27.634;2023-04-24T03:39:51;98593.500000;;;10.160000;56.247070
77517;BME280;68414;53.946;27.634;2023-04-24T03:40:51;98597.929688;;;10.200000;56.155273
77517;BME280;68414;53.946;27.634;2023-04-24T03:41:51;98600.343750;;;10.220000;55.135742
77517;BME280;68414;53.946;27.634;2023-04-24T03:42:51;98598.468750;;;10.260000;55.846680
77517;BME280;68414;53.946;27.634;2023-04-24T03:43:51;98598.906250;;;10.280000;56.055664
77517;BME280;68414;53.946;27.634;2023-04-24T03:44:51;98600.156250;;;10.300000;55.625000
77517;BME280;68414;53.946;27.634;2023-04-24T03:45:51;98602.906250;;;10.300000;55.972656
77517;BME280;68414;53.946;27.634;2023-04-24T03:46:51;98596.156250;;;10.280000;55.958008
77517;BME280;68414;53.946;27.634;2023-04-24T03:47:51;98599.421875;;;10.330000;55.019531
77517;BME280;68414;53.946;27.634;2023-04-24T03:48:51;98599.953125;;;10.390000;54.732422
77517;BME280;68414;53.946;27.634;2023-04-24T03:49:51;98595.687500;;;10.410000;55.072266
77517;BME280;68414;53.946;27.634;2023-04-24T03:50:51;98596.125000;;;10.430000;54.738281
77517;BME280;68414;53.946;27.634;2023-04-24T03:51:51;98600.765625;;;10.390000;56.004883
77517;BME280;68414;53.946;27.634;2023-04-24T03:52:51;98600.765625;;;10.390000;55.928711
77517;BME280;68414;53.946;27.634;2023-04-24T03:53:51;98591.046875;;;10.450000;54.730469
77517;BME280;68414;53.946;27.634;2023-04-24T03:54:51;98602.703125;;;10.390000;56.679688
77517;BME280;68414;53.946;27.634;2023-04-24T03:55:51;98593.710938;;;10.420000;54.670898
77517;BME280;68414;53.946;27.634;2023-04-24T03:56:51;98594.078125;;;10.400000;55.790039
77517;BME280;68414;53.946;27.634;2023-04-24T03:57:52;98597.265625;;;10.420000;56.282227
77517;BME280;68414;53.946;27.634;2023-04-24T03:58:51;98599.382812;;;10.490000;54.386719
77517;BME280;68414;53.946;27.634;2023-04-24T03:59:51;98606.203125;;;10.550000;54.262695
77517;BME280;68414;53.946;27.634;2023-04-24T04:00:51;98602.531250;;;10.660000;54.997070
77517;BME280;68414;53.946;27.634;2023-04-24T04:01:51;98605.140625;;;10.790000;54.761719
77517;BME280;68414;53.946;27.634;2023-04-24T04:02:51;98599.070312;;;10.890000;53.913086
77517;BME280;68414;53.946;27.634;2023-04-24T04:03:51;98599.562500;;;10.940000;53.593750
77517;BME280;68414;53.946;27.634;2023-04-24T04:04:51;98597.250000;;;10.960000;54.402344
77517;BME280;68414;53.946;27.634;2023-04-24T04:05:51;98593.031250;;;10.830000;55.550781
77517;BME280;68414;53.946;27.634;2023-04-24T04:06:51;98609.234375;;;10.850000;54.964844
77517;BME280;68414;53.946;27.634;2023-04-24T04:07:51;98604.585938;;;10.890000;55.709961
77517;BME280;68414;53.946;27.634;2023-04-24T04:08:51;98602.695312;;;10.930000;53.646484
77517;BME280;68414;53.946;27.634;2023-04-24T04:09:51;98602.843750;;;11.000000;53.120117
77517;BME280;68414;53.946;27.634;2023-04-24T04:10:53;98610.093750;;;11.080000;53.500977
77517;BME280;68414;53.946;27.634;2023-04-24T04:11:51;98611.671875;;;11.090000;52.859375
77517;BME280;68414;53.946;27.634;2023-04-24T04:12:51;98610.156250;;;11.110000;52.066406
77517;BME280;68414;53.946;27.634;2023-04-24T04:13:51;98609.500000;;;11.180000;51.714844
77517;BME280;68414;53.946;27.634;2023-04-24T04:14:51;98608.718750;;;11.170000;51.833008
77517;BME280;68414;53.946;27.634;2023-04-24T04:15:51;98616.625000;;;11.190000;51.878906
77517;BME280;68414;53.946;27.634;2023-04-24T04:16:51;98610.671875;;;11.170000;51.386719
77517;BME280;68414;53.946;27.634;2023-04-24T04:17:51;98607.109375;;;11.160000;51.625000
77517;BME280;68414;53.946;27.634;2023-04-24T04:18:51;98608.718750;;;11.170000;52.248047
77517;BME280;68414;53.946;27.634;2023-04-24T04:19:51;98607.976562;;;11.200000;52.394531
77517;BME280;68414;53.946;27.634;2023-04-24T04:20:51;98607.546875;;;11.180000;51.638672
77517;BME280;68414;53.946;27.634;2023-04-24T04:21:51;98613.492188;;;11.200000;51.717773
77517;BME280;68414;53.946;27.634;2023-04-24T04:22:51;98614.890625;;;11.110000;52.416016
77517;BME280;68414;53.946;27.634;2023-04-24T04:23:51;98611.765625;;;11.120000;51.991211
77517;BME280;68414;53.946;27.634;2023-04-24T04:24:51;98613.281250;;;11.100000;52.282227
77517;BME280;68414;53.946;27.634;2023-04-24T04:25:51;98607.273438;;;11.040000;53.005859
77517;BME280;68414;53.946;27.634;2023-04-24T04:26:51;98605.671875;;;11.030000;53.560547
77517;BME280;68414;53.946;27.634;2023-04-24T04:27:51;98611.117188;;;11.000000;53.992188
77517;BME280;68414;53.946;27.634;2023-04-24T04:28:51;98615.296875;;;10.940000;53.952148
77517;BME280;68414;53.946;27.634;2023-04-24T04:29:51;98608.578125;;;10.910000;54.634766
77517;BME280;68414;53.946;27.634;2023-04-24T04:30:51;98609.507812;;;10.990000;52.008789
77517;BME280;68414;53.946;27.634;2023-04-24T04:31:51;98612.265625;;;10.990000;52.074219
77517;BME280;68414;53.946;27.634;2023-04-24T04:32:51;98611.554688;;;11.020000;52.197266